createdAt,value
2022-11-15T00:03:24.847Z,85.71
2022-11-15T00:08:22.735Z,85.57
2022-11-15T00:13:22.519Z,85.47
2022-11-15T00:18:22.408Z,85.16
2022-11-15T00:23:23.442Z,85.43
2022-11-15T00:28:22.263Z,85.53
2022-11-15T00:33:22.235Z,85.94
2022-11-15T00:38:22.209Z,86.04
2022-11-15T00:43:22.303Z,84.88
2022-11-15T00:48:22.232Z,85.60
2022-11-15T00:53:22.134Z,85.49
2022-11-15T00:58:22.038Z,84.94
2022-11-15T01:03:22.064Z,85.39
2022-11-15T01:08:22.117Z,85.19
2022-11-15T01:13:21.832Z,85.25
2022-11-15T01:18:21.798Z,84.74
2022-11-15T01:23:21.746Z,84.53
2022-11-15T01:28:21.767Z,84.33
2022-11-15T01:33:21.759Z,84.64
2022-11-15T01:38:21.598Z,84.29
2022-11-15T01:43:22.554Z,84.59
2022-11-15T01:48:21.396Z,83.98
2022-11-15T01:53:21.339Z,84.09
2022-11-15T01:58:21.269Z,84.64
2022-11-15T02:03:21.251Z,84.70
2022-11-15T02:08:21.372Z,84.50
2022-11-15T02:13:22.289Z,84.29
2022-11-15T02:18:21.163Z,84.64
2022-11-15T02:23:21.192Z,84.70
2022-11-15T02:28:21.101Z,84.80
2022-11-15T02:33:20.879Z,85.11
2022-11-15T02:38:20.892Z,85.45
2022-11-15T02:43:20.865Z,84.90
2022-11-15T02:48:20.767Z,85.00
2022-11-15T02:53:20.745Z,85.00
2022-11-15T02:58:20.693Z,84.56
2022-11-15T03:03:20.716Z,85.51
2022-11-15T03:08:20.583Z,84.86
2022-11-15T03:13:20.495Z,85.92
2022-11-15T03:18:20.448Z,85.92
2022-11-15T03:23:20.348Z,85.17
2022-11-15T03:28:20.309Z,85.06
2022-11-15T03:33:20.394Z,85.31
2022-11-15T03:38:20.370Z,84.86
2022-11-15T03:43:29.315Z,84.35
2022-11-15T03:48:20.065Z,85.72
2022-11-15T03:53:20.032Z,85.27
2022-11-15T03:58:20.073Z,85.11
2022-11-15T04:03:19.874Z,85.17
2022-11-15T04:08:19.853Z,85.27
2022-11-15T04:13:19.762Z,85.11
2022-11-15T04:18:19.855Z,85.61
2022-11-15T04:23:19.772Z,85.27
2022-11-15T04:28:19.722Z,85.37
2022-11-15T04:33:19.686Z,85.37
2022-11-15T04:38:20.503Z,85.17
2022-11-15T04:43:20.576Z,85.27
2022-11-15T04:48:19.410Z,85.37
2022-11-15T04:53:19.483Z,85.58
2022-11-15T04:58:19.343Z,86.29
2022-11-15T05:03:19.298Z,87.14
2022-11-15T05:08:19.233Z,87.14
2022-11-15T05:13:19.130Z,87.55
2022-11-15T05:18:23.280Z,87.45
2022-11-15T05:23:24.542Z,87.45
2022-11-15T05:28:18.928Z,87.45
2022-11-15T05:33:18.909Z,86.80
2022-11-15T05:38:18.930Z,86.39
2022-11-15T05:43:18.775Z,86.19
2022-11-15T05:48:18.755Z,86.90
2022-11-15T05:53:18.868Z,87.61
2022-11-15T05:58:18.670Z,87.41
2022-11-15T06:03:18.698Z,87.41
2022-11-15T06:08:18.654Z,87.45
2022-11-15T06:13:18.482Z,87.24
2022-11-15T06:18:18.389Z,87.00
2022-11-15T06:23:18.452Z,87.04
2022-11-15T06:28:18.313Z,86.94
2022-11-15T06:33:18.334Z,86.08
2022-11-15T06:38:18.181Z,85.78
2022-11-15T06:43:18.216Z,85.43
2022-11-15T06:48:18.244Z,85.47
2022-11-15T06:53:18.117Z,84.82
2022-11-15T06:58:18.212Z,84.97
2022-11-15T07:03:18.129Z,84.86
2022-11-15T07:08:18.942Z,84.05
2022-11-15T07:13:17.840Z,84.05
2022-11-15T07:18:17.897Z,83.95
2022-11-15T07:23:17.898Z,83.78
2022-11-15T07:28:17.635Z,83.27
2022-11-15T07:33:17.660Z,83.27
2022-11-15T07:38:17.621Z,83.58
2022-11-15T07:43:17.497Z,82.93
2022-11-15T07:48:17.464Z,83.07
2022-11-15T07:53:18.376Z,82.97
2022-11-15T07:58:17.464Z,82.76
2022-11-15T08:03:17.404Z,81.81
2022-11-15T08:08:17.266Z,81.34
2022-11-15T08:13:18.250Z,81.10
2022-11-15T08:18:17.117Z,81.54
2022-11-15T08:23:17.034Z,81.74
2022-11-15T08:28:16.980Z,81.65
2022-11-15T08:33:16.995Z,81.27
2022-11-15T08:38:16.918Z,81.17
2022-11-15T08:43:16.902Z,81.07
2022-11-15T08:48:16.783Z,80.02
2022-11-15T08:53:16.689Z,79.81
2022-11-15T08:58:16.628Z,79.30
2022-11-15T09:03:16.585Z,79.06
2022-11-15T09:08:40.715Z,77.84
2022-11-15T09:13:17.504Z,77.50
2022-11-15T09:18:16.461Z,77.13
2022-11-15T09:23:16.403Z,76.07
2022-11-15T09:28:31.541Z,76.28
2022-11-15T09:33:16.317Z,75.84
2022-11-15T09:38:16.185Z,75.12
2022-11-15T09:43:16.244Z,74.76
2022-11-15T09:48:17.096Z,74.24
2022-11-15T09:53:16.106Z,73.67
2022-11-15T09:58:16.053Z,72.25
2022-11-15T10:03:15.896Z,71.36
2022-11-15T10:08:15.835Z,71.03
2022-11-15T10:13:15.778Z,69.74
2022-11-15T10:18:15.817Z,70.01
2022-11-15T10:23:15.692Z,69.67
2022-11-15T10:28:15.625Z,70.72
2022-11-15T10:33:15.663Z,70.11
2022-11-15T10:38:15.496Z,69.43
2022-11-15T10:43:15.515Z,68.35
2022-11-15T10:48:15.431Z,67.33
2022-11-15T10:53:15.365Z,67.30
2022-11-15T11:00:39.475Z,66.90
2022-11-15T11:05:42.172Z,65.20
2022-11-15T11:11:00.046Z,64.90
2022-11-15T11:15:40.469Z,64.56
2022-11-15T11:20:39.340Z,63.92
2022-11-15T11:25:39.266Z,62.20
2022-11-15T11:30:48.189Z,63.06
2022-11-15T11:35:39.128Z,61.16
2022-11-15T11:40:39.100Z,61.63
2022-11-15T11:45:41.251Z,58.95
2022-11-15T11:50:38.941Z,58.65
2022-11-15T11:55:39.012Z,59.12
2022-11-15T12:00:38.875Z,57.91
2022-11-15T12:05:38.788Z,58.92
2022-11-15T12:10:38.893Z,57.33
2022-11-15T12:15:38.664Z,58.54
2022-11-15T12:20:38.636Z,58.98
2022-11-15T12:25:38.559Z,58.06
2022-11-15T12:30:38.477Z,59.39
2022-11-15T12:35:38.612Z,58.95
2022-11-15T12:40:39.534Z,59.66
2022-11-15T12:45:38.450Z,59.28
2022-11-15T12:50:38.352Z,59.56
2022-11-15T12:55:38.283Z,60.20
2022-11-15T13:00:38.243Z,60.98
2022-11-15T13:05:38.130Z,60.91
2022-11-15T13:10:38.107Z,60.68
2022-11-15T13:15:42.500Z,61.41
2022-11-15T13:20:38.980Z,61.59
2022-11-15T13:25:38.149Z,61.41
2022-11-15T13:30:39.060Z,61.49
2022-11-15T13:35:37.881Z,61.59
2022-11-15T13:40:37.693Z,63.11
2022-11-15T13:45:37.700Z,62.63
2022-11-15T13:50:46.599Z,62.37
2022-11-15T13:55:37.555Z,63.01
2022-11-15T14:00:37.617Z,63.42
2022-11-15T14:05:37.438Z,64.10
2022-11-15T14:10:37.419Z,64.84
2022-11-15T14:15:37.412Z,65.75
2022-11-15T14:20:37.412Z,65.82
2022-11-15T14:25:37.315Z,66.97
2022-11-15T14:30:37.240Z,65.82
2022-11-15T14:35:37.179Z,66.13
2022-11-15T14:40:37.086Z,66.66
2022-11-15T14:45:36.982Z,66.63
2022-11-15T14:50:37.017Z,66.63
2022-11-15T14:55:36.889Z,67.27
2022-11-15T15:00:37.024Z,67.38
2022-11-15T15:05:36.780Z,68.12
2022-11-15T15:10:41.496Z,67.47
2022-11-15T15:15:37.684Z,68.22
2022-11-15T15:20:36.588Z,68.62
2022-11-15T15:25:36.574Z,68.42
2022-11-15T15:30:36.516Z,69.26
2022-11-15T15:35:39.835Z,68.96
2022-11-15T15:40:36.540Z,69.03
2022-11-15T15:45:36.376Z,68.93
2022-11-15T15:50:36.279Z,69.47
2022-11-15T15:55:36.208Z,69.67
2022-11-15T16:00:36.217Z,69.47
2022-11-15T16:05:36.247Z,69.87
2022-11-15T16:10:36.115Z,70.08
2022-11-15T16:15:36.092Z,70.48
2022-11-15T16:20:36.038Z,70.99
2022-11-15T16:25:35.883Z,71.09
2022-11-15T16:30:35.859Z,70.89
2022-11-15T16:35:35.758Z,70.86
2022-11-15T16:40:35.779Z,71.50
2022-11-15T16:45:35.686Z,71.09
2022-11-15T16:50:35.629Z,70.86
2022-11-15T16:55:35.611Z,70.99
2022-11-15T17:00:35.548Z,71.20
2022-11-15T17:05:35.481Z,71.06
2022-11-15T17:10:35.396Z,71.06
2022-11-15T17:15:35.321Z,70.86
2022-11-15T17:20:35.379Z,71.80
2022-11-15T17:25:35.346Z,71.57
2022-11-15T17:30:35.202Z,72.01
2022-11-15T17:35:35.159Z,72.01
2022-11-15T17:40:35.075Z,71.57
2022-11-15T17:45:34.990Z,71.26
2022-11-15T17:50:37.021Z,71.47
2022-11-15T17:55:35.001Z,71.16
2022-11-15T18:00:35.959Z,71.67
2022-11-15T18:05:34.908Z,71.67
2022-11-15T18:10:34.927Z,72.17
2022-11-15T18:15:34.723Z,72.38
2022-11-15T18:20:34.719Z,72.58
2022-11-15T18:25:43.512Z,71.64
2022-11-15T18:30:34.544Z,73.06
2022-11-15T18:35:34.482Z,74.78
2022-11-15T18:40:34.494Z,75.43
2022-11-15T18:45:34.377Z,76.24
2022-11-15T18:50:34.290Z,77.90
2022-11-15T18:55:34.249Z,78.41
2022-11-15T19:00:34.206Z,79.25
2022-11-15T19:05:34.193Z,80.37
2022-11-15T19:10:34.101Z,80.78
2022-11-15T19:15:34.035Z,82.65
2022-11-15T19:20:34.144Z,82.34
2022-11-15T19:25:33.936Z,81.73
2022-11-15T19:30:33.955Z,82.24
2022-11-15T19:35:33.854Z,82.54
2022-11-15T19:40:33.858Z,83.60
2022-11-15T19:45:33.782Z,84.21
2022-11-15T19:50:33.762Z,84.82
2022-11-15T19:55:34.775Z,85.33
2022-11-15T20:00:33.512Z,85.33
2022-11-15T20:05:33.622Z,85.84
2022-11-15T20:10:33.591Z,85.33
2022-11-15T20:15:33.545Z,85.33
2022-11-15T20:20:33.371Z,85.94
2022-11-15T20:25:33.381Z,85.53
2022-11-15T20:30:33.438Z,85.33
2022-11-15T20:35:33.323Z,85.53
2022-11-15T20:40:33.177Z,85.84
2022-11-15T20:45:33.144Z,85.84
2022-11-15T20:50:42.710Z,86.59
2022-11-15T20:55:33.999Z,86.69
2022-11-15T21:00:32.930Z,86.49
2022-11-15T21:05:32.846Z,86.80
2022-11-15T21:10:32.921Z,86.69
2022-11-15T21:15:32.785Z,87.10
2022-11-15T21:20:32.779Z,86.90
2022-11-15T21:25:32.762Z,87.30
2022-11-15T21:30:32.633Z,87.04
2022-11-15T21:35:32.567Z,87.00
2022-11-15T21:40:32.487Z,86.39
2022-11-15T21:45:32.346Z,86.29
2022-11-15T21:50:32.322Z,86.39
2022-11-15T21:55:32.336Z,87.14
2022-11-15T22:00:32.316Z,86.90
2022-11-15T22:05:32.151Z,86.65
2022-11-15T22:10:32.196Z,87.10
2022-11-15T22:15:31.994Z,86.35
2022-11-15T22:20:47.249Z,87.16
2022-11-15T22:25:32.890Z,86.96
2022-11-15T22:30:31.849Z,87.10
2022-11-15T22:35:31.800Z,86.86
2022-11-15T22:40:31.780Z,86.90
2022-11-15T22:45:31.793Z,86.55
2022-11-15T22:50:31.711Z,86.55
2022-11-15T22:55:31.693Z,87.41
2022-11-15T23:00:31.565Z,87.20
2022-11-15T23:05:31.451Z,88.26
2022-11-15T23:10:31.395Z,88.67
2022-11-15T23:15:33.387Z,89.18
2022-11-15T23:20:43.016Z,89.18
2022-11-15T23:25:32.335Z,89.83
2022-11-15T23:30:31.209Z,89.28
2022-11-15T23:35:31.155Z,89.18
2022-11-15T23:40:31.058Z,89.59
2022-11-15T23:45:31.016Z,89.48
2022-11-15T23:50:30.973Z,90.20
2022-11-15T23:55:30.901Z,90.24
